createdAt,value
2018-08-06T00:00:36.099Z,10.58
2018-08-06T00:03:07.162Z,7.00
2018-08-06T00:05:37.701Z,7.40
2018-08-06T00:08:08.838Z,7.20
2018-08-06T00:10:39.584Z,9.08
2018-08-06T00:13:10.041Z,7.10
2018-08-06T00:15:40.550Z,7.08
2018-08-06T00:18:11.173Z,9.88
2018-08-06T00:20:41.737Z,10.35
2018-08-06T00:23:12.328Z,8.83
2018-08-06T00:25:42.839Z,6.40
2018-08-06T00:28:13.354Z,7.10
2018-08-06T00:30:43.854Z,7.10
2018-08-06T00:36:50.973Z,7.92
2018-08-06T00:39:21.834Z,8.10
2018-08-06T00:41:52.335Z,8.10
2018-08-06T00:44:22.832Z,7.55
2018-08-06T00:46:53.369Z,7.50
2018-08-06T00:49:23.946Z,8.65
2018-08-06T00:51:54.378Z,7.40
2018-08-06T00:54:24.916Z,9.88
2018-08-06T00:56:55.444Z,8.28
2018-08-06T00:59:26.316Z,8.63
2018-08-06T01:01:57.686Z,8.10
2018-08-06T01:04:28.186Z,7.83
2018-08-06T01:06:59.164Z,8.35
2018-08-06T01:09:29.708Z,7.40
2018-08-06T01:12:00.320Z,8.25
2018-08-06T01:14:31.114Z,8.43
2018-08-06T01:17:01.775Z,5.65
2018-08-06T01:19:32.406Z,5.70
2018-08-06T01:22:02.986Z,5.75
2018-08-06T01:24:33.598Z,7.85
2018-08-06T01:27:04.068Z,5.83
2018-08-06T01:29:34.537Z,5.92
2018-08-06T01:32:05.161Z,5.95
2018-08-06T01:34:35.658Z,5.70
2018-08-06T01:37:06.407Z,5.47
2018-08-06T01:39:36.971Z,5.53
2018-08-06T01:42:07.634Z,5.47
2018-08-06T01:44:38.149Z,5.10
2018-08-06T01:47:09.138Z,7.78
2018-08-06T01:49:40.400Z,6.78
2018-08-06T01:52:10.980Z,5.80
2018-08-06T01:54:41.502Z,6.08
2018-08-06T01:57:12.082Z,7.72
2018-08-06T01:59:42.947Z,5.20
2018-08-06T02:02:14.089Z,5.92
2018-08-06T02:04:46.348Z,5.05
2018-08-06T02:07:16.878Z,6.20
2018-08-06T02:09:48.080Z,6.10
2018-08-06T02:12:19.094Z,4.37
2018-08-06T02:14:49.678Z,4.83
2018-08-06T02:17:24.241Z,4.60
2018-08-06T02:19:55.143Z,4.28
2018-08-06T02:22:25.869Z,4.70
2018-08-06T02:24:56.862Z,4.58
2018-08-06T02:27:27.856Z,4.30
2018-08-06T02:29:58.465Z,4.65
2018-08-06T02:32:28.873Z,5.65
2018-08-06T02:34:59.399Z,4.62
2018-08-06T02:37:29.973Z,5.08
2018-08-06T02:40:01.061Z,4.92
2018-08-06T02:42:31.677Z,5.05
2018-08-06T02:45:02.184Z,5.30
2018-08-06T02:47:32.712Z,4.60
2018-08-06T02:50:03.211Z,4.90
2018-08-06T02:52:33.989Z,5.22
2018-08-06T02:55:04.910Z,9.35
2018-08-06T02:57:36.482Z,5.55
2018-08-06T03:00:11.190Z,5.10
2018-08-06T03:02:43.386Z,5.25
2018-08-06T03:05:16.892Z,5.75
2018-08-06T03:07:48.271Z,4.85
2018-08-06T03:10:18.820Z,5.03
2018-08-06T03:12:49.184Z,5.10
2018-08-06T03:19:36.844Z,4.55
2018-08-06T03:22:08.412Z,5.50
2018-08-06T03:24:40.152Z,4.45
2018-08-06T03:27:11.259Z,6.03
2018-08-06T03:29:42.247Z,5.90
2018-08-06T03:32:12.879Z,6.70
2018-08-06T03:34:43.579Z,4.65
2018-08-06T03:37:14.901Z,4.00
2018-08-06T03:39:45.883Z,5.75
2018-08-06T03:42:16.455Z,6.37
2018-08-06T03:44:47.097Z,4.78
2018-08-06T03:47:17.652Z,5.00
2018-08-06T03:49:48.337Z,7.55
2018-08-06T03:52:19.153Z,6.40
2018-08-06T03:54:49.938Z,6.83
2018-08-06T03:57:20.487Z,4.83
2018-08-06T03:59:51.159Z,4.62
2018-08-06T04:02:21.685Z,5.00
2018-08-06T04:04:53.036Z,5.15
2018-08-06T04:07:23.663Z,4.33
2018-08-06T04:09:54.943Z,6.22
2018-08-06T04:12:25.434Z,4.50
2018-08-06T04:14:55.895Z,5.10
2018-08-06T04:17:27.137Z,6.45
2018-08-06T04:19:57.715Z,5.65
2018-08-06T04:22:28.179Z,6.58
2018-08-06T04:24:59.217Z,5.25
2018-08-06T04:27:29.755Z,4.22
2018-08-06T04:30:00.190Z,4.42
2018-08-06T04:32:30.819Z,6.87
2018-08-06T04:35:01.602Z,5.70
2018-08-06T04:37:32.250Z,7.03
2018-08-06T04:40:02.712Z,5.40
2018-08-06T04:42:33.741Z,5.55
2018-08-06T04:45:04.211Z,5.30
2018-08-06T04:47:34.586Z,5.47
2018-08-06T04:50:06.551Z,4.00
2018-08-06T04:52:37.331Z,4.10
2018-08-06T04:55:11.355Z,4.67
2018-08-06T04:57:42.182Z,4.50
2018-08-06T05:00:14.936Z,3.67
2018-08-06T05:02:46.128Z,3.98
2018-08-06T05:05:16.619Z,3.52
2018-08-06T05:07:47.182Z,10.00
2018-08-06T05:10:17.848Z,7.10
2018-08-06T05:12:48.283Z,5.50
2018-08-06T05:15:19.695Z,8.40
2018-08-06T05:17:50.219Z,5.65
2018-08-06T05:20:21.144Z,4.67
2018-08-06T05:22:51.661Z,11.10
2018-08-06T05:25:22.521Z,5.17
2018-08-06T05:27:52.987Z,4.42
2018-08-06T05:30:24.062Z,4.20
2018-08-06T05:32:54.488Z,4.58
2018-08-06T05:35:24.959Z,5.45
2018-08-06T05:37:55.450Z,4.15
2018-08-06T05:40:25.652Z,3.77
2018-08-06T05:42:56.099Z,3.90
2018-08-06T05:45:26.552Z,4.00
2018-08-06T05:47:57.229Z,4.37
2018-08-06T05:50:28.008Z,6.92
2018-08-06T05:52:58.772Z,5.15
2018-08-06T05:55:29.145Z,6.42
2018-08-06T05:58:00.241Z,4.22
2018-08-06T06:00:31.082Z,7.15
2018-08-06T06:03:01.440Z,7.08
2018-08-06T06:05:31.903Z,5.42
2018-08-06T06:08:02.334Z,6.40
2018-08-06T06:10:33.048Z,5.47
2018-08-06T06:13:03.471Z,4.85
2018-08-06T06:15:34.478Z,8.60
2018-08-06T06:18:04.980Z,6.83
2018-08-06T06:20:35.430Z,5.08
2018-08-06T06:23:06.134Z,5.15
2018-08-06T06:25:37.245Z,7.85
2018-08-06T06:28:08.104Z,5.42
2018-08-06T06:30:38.528Z,4.60
2018-08-06T06:33:09.034Z,5.08
2018-08-06T06:35:39.822Z,9.90
2018-08-06T06:38:10.174Z,9.93
2018-08-06T06:40:41.772Z,10.03
2018-08-06T06:43:12.325Z,5.65
2018-08-06T06:45:42.792Z,6.47
2018-08-06T06:48:14.644Z,10.35
2018-08-06T06:50:45.153Z,6.17
2018-08-06T06:53:15.694Z,6.03
2018-08-06T06:55:46.290Z,8.40
2018-08-06T06:58:17.096Z,6.15
2018-08-06T07:00:47.648Z,10.75
2018-08-06T07:03:18.116Z,8.13
2018-08-06T07:05:48.600Z,6.25
2018-08-06T07:08:19.022Z,6.40
2018-08-06T07:10:49.458Z,9.00
2018-08-06T07:13:19.956Z,6.67
2018-08-06T07:15:50.460Z,7.50
2018-08-06T07:18:20.999Z,13.80
2018-08-06T07:20:51.434Z,11.80
2018-08-06T07:23:22.263Z,8.65
2018-08-06T07:29:29.153Z,14.25
2018-08-06T07:31:59.642Z,14.25
2018-08-06T07:34:30.078Z,10.00
2018-08-06T07:37:01.364Z,11.45
2018-08-06T07:39:31.918Z,10.60
2018-08-06T07:42:02.554Z,10.25
2018-08-06T07:44:33.131Z,11.18
2018-08-06T07:47:03.783Z,9.55
2018-08-06T07:49:34.559Z,10.78
2018-08-06T07:52:04.802Z,12.03
2018-08-06T07:54:35.871Z,8.90
2018-08-06T07:57:07.562Z,7.53
2018-08-06T07:59:38.282Z,10.10
2018-08-06T08:02:09.531Z,9.40
2018-08-06T08:04:40.530Z,7.62
2018-08-06T08:07:11.046Z,8.75
2018-08-06T08:09:41.834Z,8.38
2018-08-06T08:12:12.458Z,7.80
2018-08-06T08:14:43.392Z,9.80
2018-08-06T08:17:14.078Z,6.92
2018-08-06T08:19:44.902Z,10.98
2018-08-06T08:22:15.896Z,10.60
2018-08-06T08:24:46.694Z,7.12
2018-08-06T08:27:17.129Z,8.03
2018-08-06T08:29:47.685Z,11.50
2018-08-06T08:32:17.788Z,7.42
2018-08-06T08:34:48.691Z,8.58
2018-08-06T08:37:19.134Z,7.95
2018-08-06T08:39:49.575Z,7.42
2018-08-06T08:42:20.483Z,9.50
2018-08-06T08:44:51.012Z,10.32
2018-08-06T08:47:21.456Z,6.85
2018-08-06T08:49:52.213Z,7.55
2018-08-06T08:52:22.725Z,7.85
2018-08-06T08:54:53.365Z,8.93
2018-08-06T08:57:23.869Z,8.10
2018-08-06T08:59:54.303Z,7.78
2018-08-06T09:02:24.731Z,8.98
2018-08-06T09:04:55.111Z,7.53
2018-08-06T09:07:25.712Z,11.15
2018-08-06T09:09:56.614Z,7.42
2018-08-06T09:12:27.033Z,9.95
2018-08-06T09:14:57.873Z,9.70
2018-08-06T09:17:28.289Z,8.55
2018-08-06T09:19:58.751Z,8.20
2018-08-06T09:22:29.232Z,10.18
2018-08-06T09:24:59.655Z,11.57
2018-08-06T09:27:30.612Z,10.48
2018-08-06T09:30:01.903Z,8.73
2018-08-06T09:32:32.360Z,10.53
2018-08-06T09:35:02.793Z,11.38
2018-08-06T09:37:32.955Z,9.27
2018-08-06T09:40:03.137Z,8.93
2018-08-06T09:42:33.999Z,10.68
2018-08-06T09:45:04.189Z,8.13
2018-08-06T09:47:33.923Z,9.07
2018-08-06T09:50:04.885Z,8.57
2018-08-06T09:52:35.136Z,10.70
2018-08-06T09:55:07.139Z,9.57
2018-08-06T09:57:37.299Z,11.40
2018-08-06T10:00:20.462Z,9.57
2018-08-06T10:02:51.858Z,9.93
2018-08-06T10:05:23.480Z,9.87
2018-08-06T10:07:54.641Z,14.50
2018-08-06T10:10:25.582Z,10.13
2018-08-06T10:12:55.945Z,9.70
2018-08-06T10:15:26.269Z,12.07
2018-08-06T10:17:56.708Z,10.70
2018-08-06T10:20:27.246Z,8.53
2018-08-06T10:22:57.657Z,14.97
2018-08-06T10:25:28.053Z,9.40
2018-08-06T10:27:58.196Z,8.70
2018-08-06T10:30:28.445Z,10.77
2018-08-06T10:32:58.993Z,11.93
2018-08-06T10:35:29.181Z,9.30
2018-08-06T10:37:59.359Z,9.90
2018-08-06T10:40:29.477Z,9.47
2018-08-06T10:42:59.843Z,10.40
2018-08-06T10:45:30.695Z,10.37
2018-08-06T10:48:00.921Z,10.00
2018-08-06T10:50:31.066Z,9.40
2018-08-06T10:53:01.189Z,9.20
2018-08-06T10:55:31.334Z,13.47
2018-08-06T10:58:41.584Z,9.63
2018-08-06T11:01:12.536Z,9.97
2018-08-06T11:03:42.841Z,10.67
2018-08-06T11:06:13.287Z,10.50
2018-08-06T11:08:43.608Z,9.07
2018-08-06T11:11:14.085Z,10.73
2018-08-06T11:13:44.636Z,9.77
2018-08-06T11:16:14.735Z,10.43
2018-08-06T11:18:44.868Z,10.47
2018-08-06T11:21:15.020Z,10.10
2018-08-06T11:23:45.245Z,10.57
2018-08-06T11:26:15.442Z,12.40
2018-08-06T11:28:45.571Z,9.67
2018-08-06T11:31:15.843Z,9.83
2018-08-06T11:33:46.238Z,10.37
2018-08-06T11:36:16.364Z,10.40
2018-08-06T11:38:46.537Z,10.70
2018-08-06T11:41:16.796Z,9.87
2018-08-06T11:44:38.320Z,10.03
2018-08-06T11:47:08.988Z,9.67
2018-08-06T11:49:39.390Z,11.10
2018-08-06T11:52:10.213Z,10.47
2018-08-06T11:54:40.754Z,10.60
2018-08-06T11:57:11.026Z,10.03
2018-08-06T11:59:41.190Z,10.83
2018-08-06T12:02:11.450Z,9.70
2018-08-06T12:04:41.648Z,10.10
2018-08-06T12:07:11.848Z,9.87
2018-08-06T12:09:42.636Z,11.90
2018-08-06T12:12:13.509Z,10.50
2018-08-06T12:14:44.337Z,9.50
2018-08-06T12:17:15.129Z,9.50
2018-08-06T12:19:45.571Z,9.70
2018-08-06T12:22:15.685Z,9.30
2018-08-06T12:24:45.871Z,9.23
2018-08-06T12:27:16.037Z,9.17
2018-08-06T12:29:46.508Z,9.20
2018-08-06T12:32:16.714Z,9.23
2018-08-06T12:34:46.935Z,9.40
2018-08-06T12:37:17.107Z,11.63
2018-08-06T12:39:47.623Z,10.47
2018-08-06T12:42:18.127Z,10.07
2018-08-06T12:44:48.260Z,9.03
2018-08-06T12:47:19.366Z,8.80
2018-08-06T12:49:50.291Z,8.90
2018-08-06T12:52:20.502Z,8.90
2018-08-06T12:54:50.627Z,9.60
2018-08-06T12:57:21.148Z,7.90
2018-08-06T12:59:51.317Z,9.63
2018-08-06T13:02:21.885Z,11.10
2018-08-06T13:04:52.277Z,11.10
2018-08-06T13:07:22.552Z,10.30
2018-08-06T13:09:52.708Z,8.50
2018-08-06T13:12:22.840Z,9.37
2018-08-06T13:14:52.994Z,9.20
2018-08-06T13:17:23.283Z,8.87
2018-08-06T13:19:53.563Z,8.70
2018-08-06T13:22:23.709Z,9.83
2018-08-06T13:24:53.845Z,11.47
2018-08-06T13:27:24.123Z,9.77
2018-08-06T13:29:54.263Z,10.07
2018-08-06T13:32:24.460Z,10.00
2018-08-06T13:34:55.050Z,8.93
2018-08-06T13:37:25.805Z,9.03
2018-08-06T13:39:56.185Z,9.97
2018-08-06T13:42:26.641Z,8.27
2018-08-06T13:44:56.986Z,8.87
2018-08-06T13:47:27.518Z,9.30
2018-08-06T13:49:58.105Z,8.63
2018-08-06T13:52:28.598Z,8.83
2018-08-06T13:54:59.158Z,8.73
2018-08-06T13:57:29.544Z,8.83
2018-08-06T13:59:59.802Z,8.97
2018-08-06T14:02:30.252Z,11.07
2018-08-06T14:05:00.526Z,10.17
2018-08-06T14:07:30.656Z,10.97
2018-08-06T14:10:00.702Z,9.63
2018-08-06T14:12:31.538Z,7.97
2018-08-06T14:15:02.041Z,8.70
2018-08-06T14:17:32.211Z,9.03
2018-08-06T14:20:02.882Z,7.93
2018-08-06T14:22:33.342Z,13.90
2018-08-06T14:25:04.683Z,8.73
2018-08-06T14:27:35.253Z,8.23
2018-08-06T14:30:09.250Z,7.70
2018-08-06T14:32:39.621Z,8.67
2018-08-06T14:35:10.319Z,8.07
2018-08-06T14:37:40.698Z,8.17
2018-08-06T14:40:15.703Z,8.33
2018-08-06T14:42:46.888Z,7.67
2018-08-06T14:45:17.297Z,8.00
2018-08-06T14:47:47.809Z,7.73
2018-08-06T14:50:18.001Z,7.90
2018-08-06T14:52:48.574Z,12.40
2018-08-06T14:55:18.965Z,9.03
2018-08-06T14:57:49.075Z,7.90
2018-08-06T15:00:20.879Z,11.27
2018-08-06T15:02:52.403Z,7.13
2018-08-06T15:05:23.112Z,8.20
2018-08-06T15:07:53.388Z,7.10
2018-08-06T15:10:23.584Z,7.70
2018-08-06T15:12:53.753Z,8.47
2018-08-06T15:15:23.973Z,7.10
2018-08-06T15:17:54.491Z,7.33
2018-08-06T15:20:24.655Z,7.17
2018-08-06T15:22:55.089Z,7.07
2018-08-06T15:25:25.918Z,6.73
2018-08-06T15:27:56.299Z,8.27
2018-08-06T15:30:26.881Z,7.97
2018-08-06T15:32:57.298Z,8.00
2018-08-06T15:35:27.788Z,7.70
2018-08-06T15:37:57.919Z,7.30
2018-08-06T15:40:28.105Z,8.37
2018-08-06T15:42:58.282Z,9.17
2018-08-06T15:45:28.439Z,7.27
2018-08-06T15:47:59.015Z,8.07
2018-08-06T15:50:29.175Z,7.20
2018-08-06T15:52:59.452Z,7.57
2018-08-06T15:55:29.929Z,7.23
2018-08-06T15:58:00.289Z,7.63
2018-08-06T16:00:30.569Z,7.73
2018-08-06T16:03:01.123Z,10.37
2018-08-06T16:05:31.452Z,9.03
2018-08-06T16:08:02.015Z,7.70
2018-08-06T16:10:32.220Z,10.20
2018-08-06T16:13:02.339Z,8.20
2018-08-06T16:15:32.455Z,10.13
2018-08-06T16:18:02.611Z,7.27
2018-08-06T16:20:32.891Z,8.00
2018-08-06T16:23:03.108Z,8.50
2018-08-06T16:25:32.529Z,7.80
2018-08-06T16:28:03.611Z,7.60
2018-08-06T16:30:33.850Z,10.03
2018-08-06T16:33:04.481Z,10.30
2018-08-06T16:35:34.933Z,10.90
2018-08-06T16:38:05.379Z,8.50
2018-08-06T16:40:36.943Z,10.73
2018-08-06T16:43:07.426Z,10.53
2018-08-06T16:45:37.607Z,8.53
2018-08-06T16:48:07.929Z,8.23
2018-08-06T16:50:38.119Z,8.33
2018-08-06T16:53:08.307Z,10.60
2018-08-06T16:55:38.978Z,8.10
2018-08-06T16:58:09.543Z,11.00
2018-08-06T17:00:39.710Z,8.60
2018-08-06T17:03:10.233Z,8.48
2018-08-06T17:05:40.417Z,8.77
2018-08-06T17:08:10.876Z,10.30
2018-08-06T17:10:41.435Z,10.13
2018-08-06T17:13:11.839Z,8.38
2018-08-06T17:15:42.264Z,11.10
2018-08-06T17:18:13.062Z,8.43
2018-08-06T17:20:43.785Z,9.50
2018-08-06T17:23:14.557Z,10.55
2018-08-06T17:25:44.975Z,9.08
2018-08-06T17:28:15.439Z,11.03
2018-08-06T17:30:46.075Z,9.98
2018-08-06T17:33:17.635Z,20.23
2018-08-06T17:35:48.111Z,12.03
2018-08-06T17:38:18.669Z,12.28
2018-08-06T17:40:49.155Z,11.55
2018-08-06T17:43:19.621Z,10.30
2018-08-06T17:45:51.252Z,10.70
2018-08-06T17:48:22.189Z,10.70
2018-08-06T17:50:52.760Z,11.10
2018-08-06T17:53:23.620Z,11.85
2018-08-06T17:55:54.464Z,11.20
2018-08-06T17:58:25.046Z,11.50
2018-08-06T18:00:55.997Z,11.78
2018-08-06T18:03:26.563Z,11.05
2018-08-06T18:05:57.077Z,10.53
2018-08-06T18:08:27.575Z,10.85
2018-08-06T18:10:58.277Z,11.03
2018-08-06T18:13:29.441Z,11.08
2018-08-06T18:16:00.267Z,10.78
2018-08-06T18:18:31.171Z,11.28
2018-08-06T18:21:01.707Z,11.05
2018-08-06T18:23:33.059Z,11.25
2018-08-06T18:26:03.539Z,15.78
2018-08-06T18:28:34.143Z,14.15
2018-08-06T18:31:04.895Z,13.85
2018-08-06T18:33:35.663Z,12.00
2018-08-06T18:36:06.668Z,20.30
2018-08-06T18:38:37.151Z,25.52
2018-08-06T18:41:08.083Z,23.75
2018-08-06T18:43:38.921Z,21.27
2018-08-06T18:46:09.422Z,16.97
2018-08-06T18:59:28.577Z,15.80
2018-08-06T19:01:59.129Z,15.68
2018-08-06T19:04:29.666Z,14.55
2018-08-06T19:07:00.495Z,14.83
2018-08-06T19:09:31.047Z,14.47
2018-08-06T19:12:06.975Z,14.55
2018-08-06T19:14:38.304Z,16.50
2018-08-06T19:17:13.821Z,17.82
2018-08-06T19:19:44.514Z,17.42
2018-08-06T19:22:16.071Z,16.27
2018-08-06T19:28:23.039Z,13.18
2018-08-06T19:30:58.738Z,13.48
2018-08-06T19:33:29.235Z,12.10
2018-08-06T19:35:59.709Z,12.05
2018-08-06T19:38:30.559Z,12.37
2018-08-06T19:41:01.772Z,12.95
2018-08-06T19:43:37.618Z,11.95
2018-08-06T19:46:09.096Z,12.20
2018-08-06T19:48:39.636Z,12.90
2018-08-06T19:51:10.538Z,12.85
2018-08-06T19:53:41.094Z,12.53
2018-08-06T19:56:15.522Z,12.88
2018-08-06T19:58:46.520Z,13.30
2018-08-06T20:01:16.954Z,12.70
2018-08-06T20:03:48.245Z,13.50
2018-08-06T20:06:19.015Z,14.28
2018-08-06T20:08:50.112Z,13.83
2018-08-06T20:11:20.654Z,12.80
2018-08-06T20:13:51.613Z,13.38
2018-08-06T20:16:22.893Z,13.53
2018-08-06T20:18:53.807Z,12.93
2018-08-06T20:21:24.628Z,11.95
2018-08-06T20:23:56.362Z,13.48
2018-08-06T20:26:26.912Z,14.83
2018-08-06T20:28:57.699Z,14.87
2018-08-06T20:31:28.309Z,13.90
2018-08-06T20:33:59.585Z,16.02
2018-08-06T20:36:30.040Z,15.85
2018-08-06T20:39:38.159Z,16.57
2018-08-06T20:42:08.840Z,15.28
2018-08-06T20:44:39.393Z,17.52
2018-08-06T20:47:09.937Z,18.10
2018-08-06T20:49:40.451Z,20.92
2018-08-06T20:52:11.062Z,20.17
2018-08-06T20:54:41.535Z,20.37
2018-08-06T20:57:12.682Z,20.37
2018-08-06T20:59:43.414Z,21.68
2018-08-06T21:02:14.332Z,22.02
2018-08-06T21:04:45.183Z,19.73
2018-08-06T21:07:16.596Z,20.70
2018-08-06T21:09:47.862Z,20.23
2018-08-06T21:12:18.583Z,17.95
2018-08-06T21:14:49.660Z,18.42
2018-08-06T21:17:20.665Z,17.60
2018-08-06T21:19:51.296Z,18.20
2018-08-06T21:22:21.524Z,19.20
2018-08-06T21:24:52.219Z,18.57
2018-08-06T21:27:22.825Z,19.23
2018-08-06T21:29:53.259Z,18.02
2018-08-06T21:32:24.452Z,17.85
2018-08-06T21:34:54.893Z,17.40
2018-08-06T21:37:25.596Z,18.62
2018-08-06T21:39:56.072Z,17.67
2018-08-06T21:42:26.988Z,17.20
2018-08-06T21:44:57.492Z,17.50
2018-08-06T21:47:28.172Z,17.82
2018-08-06T21:49:58.789Z,18.35
2018-08-06T21:52:29.602Z,19.07
2018-08-06T21:55:00.156Z,20.05
2018-08-06T21:57:30.755Z,21.07
2018-08-06T22:00:01.379Z,20.62
2018-08-06T22:02:32.825Z,20.20
2018-08-06T22:05:03.671Z,20.65
2018-08-06T22:07:34.504Z,20.45
2018-08-06T22:10:05.947Z,22.22
2018-08-06T22:12:36.466Z,21.33
2018-08-06T22:15:07.099Z,21.02
2018-08-06T22:17:38.443Z,19.23
2018-08-06T22:20:10.537Z,19.50
2018-08-06T22:22:41.384Z,19.12
2018-08-06T22:25:11.964Z,19.37
2018-08-06T22:28:36.272Z,19.07
2018-08-06T22:31:07.022Z,18.05
2018-08-06T22:33:37.529Z,18.85
2018-08-06T22:36:07.952Z,18.87
2018-08-06T22:38:38.449Z,18.17
2018-08-06T22:41:09.088Z,18.73
2018-08-06T22:43:39.809Z,19.42
2018-08-06T22:46:11.166Z,18.45
2018-08-06T22:48:41.984Z,18.15
2018-08-06T22:51:12.550Z,17.32
2018-08-06T22:53:43.171Z,16.70
2018-08-06T22:56:14.234Z,17.23
2018-08-06T22:58:44.742Z,16.60
2018-08-06T23:01:15.367Z,15.88
2018-08-06T23:03:45.518Z,15.35
2018-08-06T23:06:16.838Z,15.45
2018-08-06T23:08:47.329Z,14.70
2018-08-06T23:11:18.221Z,14.47
2018-08-06T23:13:48.699Z,14.70
2018-08-06T23:16:19.527Z,16.17
2018-08-06T23:18:50.415Z,15.72
2018-08-06T23:21:20.902Z,16.97
2018-08-06T23:23:51.387Z,14.63
2018-08-06T23:29:58.453Z,15.05
2018-08-06T23:32:30.927Z,14.25
2018-08-06T23:35:01.449Z,13.03
2018-08-06T23:37:32.348Z,12.33
2018-08-06T23:40:03.298Z,12.43
2018-08-06T23:42:34.490Z,12.73
2018-08-06T23:45:06.459Z,12.30
2018-08-06T23:47:37.765Z,13.55
2018-08-06T23:50:10.992Z,12.98
2018-08-06T23:52:43.089Z,12.90
2018-08-06T23:55:16.688Z,12.45
2018-08-06T23:57:47.425Z,12.50
